Ann Arbor, MI (48103)

12:20 PM EDT on August 30, 2015 (GMT -0400)
Virginia Park | | Change Station
CLOSE
Current Station
Personal Weather Station
Location: Ann Arbor, MI
Elevation: 896 ft
Nearby Weather Stations

Elev 896 ft 42.28 °N, 83.77 °W | Updated 6 seconds ago

Overcast
Overcast
77.9 °F
Feels Like 80 °F
N
2.0
Wind Variable Wind from WNW
Gusts 4.0 mph

Today
High -- | Low -- °F
--% Chance of Precip.
Yesterday
High -- | Low -- °F
Precip. -- in
6:58 AM 8:12 PM
Full, 99% visible
Pressure 30.07 in
Visibility 9.0 miles
Clouds Few 1400 ft
Mostly Cloudy 3100 ft
Overcast 4300 ft
Heat Index 80 °F
Dew Point 70 °F
Humidity 77%
Rainfall 0.07 in
Snow Depth Not available.
UV 2 out of 12
Pollen 7.80 out of 12
Air Quality Not available.
Flu Activity Not available.
METAR KARB 301553Z 17004KT 9SM FEW014 BKN031 OVC043 24/20 A3008 RMK AO2 SLP182 T02390200
Pressure 30.07 in
Visibility 9.0 miles
Clouds Few 1400 ft
Mostly Cloudy 3100 ft
Overcast 4300 ft
Heat Index 80 °F
Dew Point 70 °F
Humidity 77%
Rainfall 0.07 in
Snow Depth Not available.
UV 2 out of 12
Pollen 7.80 out of 12
Air Quality Not available.
Flu Activity Not available.
METAR KARB 301553Z 17004KT 9SM FEW014 BKN031 OVC043 24/20 A3008 RMK AO2 SLP182 T02390200

10-Day Weather Forecast

×

Almanac

Astronomy

Aug. 30, 2015 Rise Set
Actual Time
Civil Twilight
Nautical Twilight
Astronomical Twilight
Moon
Length of Visible Light
Length of Day
Tomorrow will be .
, % of the Moon is Illuminated

Today's Extremes

State Highs State Lows

Community

WunderPhotos

Upload Photos

1,851,005 photos uploaded!

WunderBlogs® & News

Nearby

Air Quality

  Air Quality AQ Index Pollutant
Not available.

Snow Depth

Station Depth Elevation

Earthquake Activity

City Distance Mag. Time & Date
Minimum magnitude displayed is 2.5.

Coastal Water Temperatures

Place Temperature

Stations

Nearby Weather Stations

Station Location Temp. Windchill Dew Point Humidity Wind Precip. Elev Updated Type